Norfork, Arkansas
Current Conditions -  °F | °C
As of 4:53 AM on Wednesday 26 Nov 2014 (Local Time) from KBPK Reporting Station
Clear Clear  
Wind Chill: 24°   Ceiling: Unl
Heat Index: 30°   Visibility: 10mi
Dew Point: 21°   Wind: 6mph
Humidity: 69%   Direction: 140°SE
Pressure: 30.02"   Gusts: NA
Location:  36.21°N, 92.28°W
Report Text: KBPK 261053Z AUTO 14005KT 10SM CLR M01/M06 A3002 RMK AO2 SLP169 T10111061
Loading
Personal Weather Stations






























Interactive Weather Map New forecast layout! Learn more

10-Day Weather Forecast

Advertisements
Track Severe Weather on mobile